sensor_id;sensor_type;location;lat;lon;timestamp;pressure;altitude;pressure_sealevel;temperature;humidity
36190;BME280;22232;50.914;13.858;2023-07-20T00:00:07;97391.31;;;15.89;100.00
36190;BME280;22232;50.914;13.858;2023-07-20T00:02:41;97394.00;;;15.89;100.00
36190;BME280;22232;50.914;13.858;2023-07-20T00:05:08;97393.47;;;15.87;100.00
36190;BME280;22232;50.914;13.858;2023-07-20T00:07:36;97399.88;;;15.91;100.00
36190;BME280;22232;50.914;13.858;2023-07-20T00:10:04;97399.63;;;15.92;100.00
36190;BME280;22232;50.914;13.858;2023-07-20T00:12:32;97401.47;;;15.97;100.00
36190;BME280;22232;50.914;13.858;2023-07-20T00:15:00;97396.09;;;15.97;100.00
36190;BME280;22232;50.914;13.858;2023-07-20T00:17:27;97400.13;;;16.04;100.00
36190;BME280;22232;50.914;13.858;2023-07-20T00:19:55;97393.34;;;16.12;100.00
36190;BME280;22232;50.914;13.858;2023-07-20T00:22:23;97393.31;;;16.17;100.00
36190;BME280;22232;50.914;13.858;2023-07-20T00:24:50;97395.16;;;16.27;100.00
36190;BME280;22232;50.914;13.858;2023-07-20T00:27:18;97393.81;;;16.24;100.00
36190;BME280;22232;50.914;13.858;2023-07-20T00:29:46;97386.28;;;16.21;100.00
36190;BME280;22232;50.914;13.858;2023-07-20T00:32:14;97387.16;;;16.06;100.00
36190;BME280;22232;50.914;13.858;2023-07-20T00:34:41;97385.50;;;16.21;100.00
36190;BME280;22232;50.914;13.858;2023-07-20T00:37:09;97384.94;;;16.24;100.00
36190;BME280;22232;50.914;13.858;2023-07-20T00:39:37;97393.88;;;16.14;100.00
36190;BME280;22232;50.914;13.858;2023-07-20T00:42:06;97399.53;;;16.13;100.00
36190;BME280;22232;50.914;13.858;2023-07-20T00:44:34;97405.19;;;16.16;100.00
36190;BME280;22232;50.914;13.858;2023-07-20T00:47:02;97411.34;;;16.17;100.00
36190;BME280;22232;50.914;13.858;2023-07-20T00:49:32;97407.00;;;16.26;100.00
36190;BME280;22232;50.914;13.858;2023-07-20T00:52:01;97413.75;;;16.23;100.00
36190;BME280;22232;50.914;13.858;2023-07-20T00:54:30;97407.03;;;16.16;100.00
36190;BME280;22232;50.914;13.858;2023-07-20T00:56:58;97402.22;;;16.13;100.00
36190;BME280;22232;50.914;13.858;2023-07-20T00:59:28;97393.31;;;16.17;100.00
36190;BME280;22232;50.914;13.858;2023-07-20T01:01:56;97392.28;;;16.13;100.00
36190;BME280;22232;50.914;13.858;2023-07-20T01:04:24;97386.91;;;16.13;100.00
36190;BME280;22232;50.914;13.858;2023-07-20T01:07:22;97397.94;;;16.06;100.00
36190;BME280;22232;50.914;13.858;2023-07-20T01:10:01;97401.41;;;16.12;100.00
36190;BME280;22232;50.914;13.858;2023-07-20T01:12:41;97392.56;;;16.06;100.00
36190;BME280;22232;50.914;13.858;2023-07-20T01:15:10;97400.66;;;16.01;100.00
36190;BME280;22232;50.914;13.858;2023-07-20T01:17:38;97394.47;;;16.01;100.00
36190;BME280;22232;50.914;13.858;2023-07-20T01:20:12;97397.72;;;15.98;100.00
36190;BME280;22232;50.914;13.858;2023-07-20T01:31:24;97390.69;;;16.07;100.00
36190;BME280;22232;50.914;13.858;2023-07-20T01:33:56;97390.16;;;16.05;100.00
36190;BME280;22232;50.914;13.858;2023-07-20T01:36:26;97392.31;;;16.03;100.00
36190;BME280;22232;50.914;13.858;2023-07-20T01:38:56;97397.69;;;16.03;100.00
36190;BME280;22232;50.914;13.858;2023-07-20T01:41:24;97394.47;;;16.01;100.00
36190;BME280;22232;50.914;13.858;2023-07-20T01:43:51;97393.94;;;16.04;100.00
36190;BME280;22232;50.914;13.858;2023-07-20T01:46:19;97394.72;;;16.04;100.00
36190;BME280;22232;50.914;13.858;2023-07-20T01:48:47;97394.44;;;16.06;100.00
36190;BME280;22232;50.914;13.858;2023-07-20T01:51:15;97393.69;;;15.95;100.00
36190;BME280;22232;50.914;13.858;2023-07-20T01:53:45;97389.13;;;15.91;100.00
36190;BME280;22232;50.914;13.858;2023-07-20T01:56:14;97387.28;;;15.86;100.00
36190;BME280;22232;50.914;13.858;2023-07-20T01:58:42;97384.84;;;15.85;100.00
36190;BME280;22232;50.914;13.858;2023-07-20T02:01:10;97387.03;;;15.77;100.00
36190;BME280;22232;50.914;13.858;2023-07-20T02:03:37;97397.25;;;15.75;100.00
36190;BME280;22232;50.914;13.858;2023-07-20T02:06:05;97397.78;;;15.72;100.00
36190;BME280;22232;50.914;13.858;2023-07-20T02:08:33;97402.13;;;15.68;100.00
36190;BME280;22232;50.914;13.858;2023-07-20T02:11:01;97397.25;;;15.65;100.00
36190;BME280;22232;50.914;13.858;2023-07-20T02:13:30;97400.50;;;15.62;100.00
36190;BME280;22232;50.914;13.858;2023-07-20T02:15:58;97395.41;;;15.71;100.00
36190;BME280;22232;50.914;13.858;2023-07-20T02:18:25;97406.13;;;15.60;100.00
36190;BME280;22232;50.914;13.858;2023-07-20T02:20:53;97405.88;;;15.52;100.00
36190;BME280;22232;50.914;13.858;2023-07-20T02:23:21;97413.13;;;15.51;100.00
36190;BME280;22232;50.914;13.858;2023-07-20T02:25:49;97414.50;;;15.44;100.00
36190;BME280;22232;50.914;13.858;2023-07-20T02:28:17;97414.78;;;15.32;100.00
36190;BME280;22232;50.914;13.858;2023-07-20T02:30:45;97410.50;;;15.26;100.00
36190;BME280;22232;50.914;13.858;2023-07-20T02:33:13;97418.31;;;15.22;100.00
36190;BME280;22232;50.914;13.858;2023-07-20T02:35:41;97412.66;;;15.19;100.00
36190;BME280;22232;50.914;13.858;2023-07-20T02:38:08;97411.31;;;15.26;100.00
36190;BME280;22232;50.914;13.858;2023-07-20T02:40:36;97403.25;;;15.21;100.00
36190;BME280;22232;50.914;13.858;2023-07-20T02:43:04;97404.31;;;15.25;100.00
36190;BME280;22232;50.914;13.858;2023-07-20T02:45:32;97409.69;;;15.20;100.00
36190;BME280;22232;50.914;13.858;2023-07-20T02:47:59;97421.81;;;15.12;100.00
36190;BME280;22232;50.914;13.858;2023-07-20T02:50:28;97416.16;;;14.99;100.00
36190;BME280;22232;50.914;13.858;2023-07-20T02:52:56;97422.59;;;14.98;100.00
36190;BME280;22232;50.914;13.858;2023-07-20T02:55:23;97417.25;;;14.98;100.00
36190;BME280;22232;50.914;13.858;2023-07-20T02:57:51;97430.66;;;14.98;100.00
36190;BME280;22232;50.914;13.858;2023-07-20T03:00:19;97432.00;;;14.95;100.00
36190;BME280;22232;50.914;13.858;2023-07-20T03:02:47;97431.19;;;14.95;100.00
36190;BME280;22232;50.914;13.858;2023-07-20T03:05:15;97424.22;;;14.99;100.00
36190;BME280;22232;50.914;13.858;2023-07-20T03:07:44;97431.19;;;14.95;100.00
36190;BME280;22232;50.914;13.858;2023-07-20T03:10:12;97425.28;;;14.98;100.00
36190;BME280;22232;50.914;13.858;2023-07-20T03:12:40;97426.63;;;14.95;100.00
36190;BME280;22232;50.914;13.858;2023-07-20T03:15:08;97426.34;;;14.97;100.00
36190;BME280;22232;50.914;13.858;2023-07-20T03:17:37;97431.16;;;14.84;100.00
36190;BME280;22232;50.914;13.858;2023-07-20T03:20:05;97437.88;;;14.82;100.00
36190;BME280;22232;50.914;13.858;2023-07-20T03:22:36;97443.25;;;14.82;100.00
36190;BME280;22232;50.914;13.858;2023-07-20T03:25:04;97445.66;;;14.78;100.00
36190;BME280;22232;50.914;13.858;2023-07-20T03:27:32;97440.84;;;14.80;100.00
36190;BME280;22232;50.914;13.858;2023-07-20T03:30:02;97442.47;;;14.86;100.00
36190;BME280;22232;50.914;13.858;2023-07-20T03:32:29;97437.66;;;14.88;100.00
36190;BME280;22232;50.914;13.858;2023-07-20T03:34:57;97438.44;;;14.84;100.00
36190;BME280;22232;50.914;13.858;2023-07-20T03:37:25;97425.00;;;14.89;100.00
36190;BME280;22232;50.914;13.858;2023-07-20T03:39:53;97431.97;;;14.85;100.00
36190;BME280;22232;50.914;13.858;2023-07-20T03:42:23;97435.47;;;14.90;100.00
36190;BME280;22232;50.914;13.858;2023-07-20T03:44:50;97440.84;;;14.90;100.00
36190;BME280;22232;50.914;13.858;2023-07-20T03:47:18;97437.63;;;15.14;100.00
36190;BME280;22232;50.914;13.858;2023-07-20T03:49:46;97438.97;;;15.52;100.00
36190;BME280;22232;50.914;13.858;2023-07-20T03:52:13;97442.94;;;15.86;100.00
36190;BME280;22232;50.914;13.858;2023-07-20T03:54:41;97447.41;;;16.16;100.00
36190;BME280;22232;50.914;13.858;2023-07-20T03:57:10;97445.16;;;16.43;100.00
36190;BME280;22232;50.914;13.858;2023-07-20T03:59:38;97442.41;;;16.48;100.00
36190;BME280;22232;50.914;13.858;2023-07-20T04:02:06;97440.97;;;16.61;100.00
36190;BME280;22232;50.914;13.858;2023-07-20T04:04:34;97445.19;;;16.83;100.00
36190;BME280;22232;50.914;13.858;2023-07-20T04:07:02;97433.81;;;17.25;100.00
36190;BME280;22232;50.914;13.858;2023-07-20T04:09:31;97430.00;;;17.60;100.00
36190;BME280;22232;50.914;13.858;2023-07-20T04:11:59;97426.53;;;18.08;100.00
36190;BME280;22232;50.914;13.858;2023-07-20T04:14:27;97437.75;;;18.39;100.00
36190;BME280;22232;50.914;13.858;2023-07-20T04:16:55;97431.31;;;18.78;100.00
36190;BME280;22232;50.914;13.858;2023-07-20T04:19:23;97427.88;;;19.24;100.00
36190;BME280;22232;50.914;13.858;2023-07-20T04:21:51;97442.56;;;19.51;100.00
36190;BME280;22232;50.914;13.858;2023-07-20T04:24:19;97441.47;;;19.84;100.00
36190;BME280;22232;50.914;13.858;2023-07-20T04:26:46;97440.56;;;20.30;100.00
36190;BME280;22232;50.914;13.858;2023-07-20T04:29:14;97442.31;;;20.49;100.00
36190;BME280;22232;50.914;13.858;2023-07-20T04:31:43;97439.13;;;20.60;100.00
36190;BME280;22232;50.914;13.858;2023-07-20T04:34:11;97434.03;;;20.81;100.00
36190;BME280;22232;50.914;13.858;2023-07-20T04:36:39;97436.94;;;20.85;100.00
36190;BME280;22232;50.914;13.858;2023-07-20T04:39:10;97430.69;;;20.84;100.00
36190;BME280;22232;50.914;13.858;2023-07-20T04:41:57;97429.22;;;20.28;100.00
36190;BME280;22232;50.914;13.858;2023-07-20T04:44:25;97442.16;;;20.04;100.00
36190;BME280;22232;50.914;13.858;2023-07-20T04:46:53;97444.75;;;19.81;100.00
36190;BME280;22232;50.914;13.858;2023-07-20T04:49:21;97442.56;;;19.51;100.00
36190;BME280;22232;50.914;13.858;2023-07-20T04:51:48;97447.72;;;19.00;100.00
36190;BME280;22232;50.914;13.858;2023-07-20T04:54:17;97445.06;;;18.57;100.00
36190;BME280;22232;50.914;13.858;2023-07-20T04:56:47;97447.69;;;18.20;100.00
36190;BME280;22232;50.914;13.858;2023-07-20T04:59:19;97445.88;;;17.91;100.00
36190;BME280;22232;50.914;13.858;2023-07-20T05:01:47;97450.63;;;17.75;100.00
36190;BME280;22232;50.914;13.858;2023-07-20T05:04:16;97456.97;;;17.60;100.00
36190;BME280;22232;50.914;13.858;2023-07-20T05:06:46;97463.03;;;17.47;100.00
36190;BME280;22232;50.914;13.858;2023-07-20T05:09:14;97459.38;;;17.33;100.00
36190;BME280;22232;50.914;13.858;2023-07-20T05:11:41;97462.72;;;17.19;100.00
36190;BME280;22232;50.914;13.858;2023-07-20T05:14:09;97469.81;;;17.05;100.00
36190;BME280;22232;50.914;13.858;2023-07-20T05:16:37;97464.50;;;16.95;100.00
36190;BME280;22232;50.914;13.858;2023-07-20T05:19:07;97464.72;;;17.04;100.00
36190;BME280;22232;50.914;13.858;2023-07-20T05:21:34;97464.88;;;17.17;100.00
36190;BME280;22232;50.914;13.858;2023-07-20T05:24:02;97463.19;;;17.27;100.00
36190;BME280;22232;50.914;13.858;2023-07-20T05:26:30;97457.00;;;17.55;100.00
36190;BME280;22232;50.914;13.858;2023-07-20T05:28:58;97456.31;;;18.22;100.00
36190;BME280;22232;50.914;13.858;2023-07-20T05:31:25;97453.91;;;18.63;100.00
36190;BME280;22232;50.914;13.858;2023-07-20T05:33:53;97455.50;;;18.64;100.00
36190;BME280;22232;50.914;13.858;2023-07-20T05:36:21;97455.59;;;19.16;100.00
36190;BME280;22232;50.914;13.858;2023-07-20T05:38:49;97447.69;;;20.12;100.00
36190;BME280;22232;50.914;13.858;2023-07-20T05:41:17;97447.22;;;20.74;100.00
36190;BME280;22232;50.914;13.858;2023-07-20T05:43:45;97441.44;;;20.39;100.00
36190;BME280;22232;50.914;13.858;2023-07-20T05:46:12;97442.03;;;20.36;100.00
36190;BME280;22232;50.914;13.858;2023-07-20T05:48:40;97447.09;;;20.79;100.00
36190;BME280;22232;50.914;13.858;2023-07-20T05:51:08;97452.47;;;20.43;100.00
36190;BME280;22232;50.914;13.858;2023-07-20T05:53:35;97454.69;;;20.13;100.00
36190;BME280;22232;50.914;13.858;2023-07-20T05:56:04;97454.25;;;19.65;100.00
36190;BME280;22232;50.914;13.858;2023-07-20T05:58:32;97457.81;;;20.07;100.00
36190;BME280;22232;50.914;13.858;2023-07-20T06:00:59;97459.78;;;20.43;100.00
36190;BME280;22232;50.914;13.858;2023-07-20T06:03:27;97466.41;;;20.36;100.00
36190;BME280;22232;50.914;13.858;2023-07-20T06:06:02;97471.34;;;20.07;100.00
36190;BME280;22232;50.914;13.858;2023-07-20T06:08:30;97470.13;;;19.85;100.00
36190;BME280;22232;50.914;13.858;2023-07-20T06:10:58;97470.91;;;19.39;100.00
36190;BME280;22232;50.914;13.858;2023-07-20T06:13:26;97478.94;;;19.25;100.00
36190;BME280;22232;50.914;13.858;2023-07-20T06:15:53;97478.47;;;19.05;100.00
36190;BME280;22232;50.914;13.858;2023-07-20T06:18:23;97476.00;;;19.08;100.00
36190;BME280;22232;50.914;13.858;2023-07-20T06:20:51;97474.38;;;19.07;100.00
36190;BME280;22232;50.914;13.858;2023-07-20T06:23:19;97471.72;;;19.21;100.00
36190;BME280;22232;50.914;13.858;2023-07-20T06:25:47;97474.66;;;19.57;100.00
36190;BME280;22232;50.914;13.858;2023-07-20T06:28:15;97474.41;;;19.73;100.00
36190;BME280;22232;50.914;13.858;2023-07-20T06:30:43;97469.44;;;20.07;100.00
36190;BME280;22232;50.914;13.858;2023-07-20T06:33:11;97475.09;;;20.75;100.00
36190;BME280;22232;50.914;13.858;2023-07-20T06:35:41;97476.13;;;20.79;100.00
36190;BME280;22232;50.914;13.858;2023-07-20T06:38:10;97488.84;;;20.51;100.00
36190;BME280;22232;50.914;13.858;2023-07-20T06:40:41;97495.00;;;20.01;100.00
36190;BME280;22232;50.914;13.858;2023-07-20T06:43:08;97488.91;;;19.63;100.00
36190;BME280;22232;50.914;13.858;2023-07-20T06:45:39;97491.94;;;19.42;100.00
36190;BME280;22232;50.914;13.858;2023-07-20T06:48:07;97499.81;;;18.87;100.00
36190;BME280;22232;50.914;13.858;2023-07-20T06:50:34;97505.06;;;18.78;100.00
36190;BME280;22232;50.914;13.858;2023-07-20T06:53:02;97511.47;;;18.40;100.00
36190;BME280;22232;50.914;13.858;2023-07-20T06:55:33;97523.03;;;17.92;100.00
36190;BME280;22232;50.914;13.858;2023-07-20T06:58:09;97540.66;;;17.11;100.00
36190;BME280;22232;50.914;13.858;2023-07-20T07:00:36;97541.34;;;16.82;100.00
36190;BME280;22232;50.914;13.858;2023-07-20T07:03:04;97523.63;;;16.71;100.00
36190;BME280;22232;50.914;13.858;2023-07-20T07:05:35;97515.81;;;16.64;100.00
36190;BME280;22232;50.914;13.858;2023-07-20T07:08:05;97516.09;;;16.68;100.00
36190;BME280;22232;50.914;13.858;2023-07-20T07:10:35;97517.97;;;16.67;100.00
36190;BME280;22232;50.914;13.858;2023-07-20T07:13:03;97528.44;;;16.74;100.00
36190;BME280;22232;50.914;13.858;2023-07-20T07:15:32;97526.25;;;16.86;100.00
36190;BME280;22232;50.914;13.858;2023-07-20T07:18:00;97520.50;;;17.03;100.00
36190;BME280;22232;50.914;13.858;2023-07-20T07:20:28;97526.56;;;17.24;100.00
36190;BME280;22232;50.914;13.858;2023-07-20T07:22:55;97524.97;;;17.52;100.00
36190;BME280;22232;50.914;13.858;2023-07-20T07:28:42;97519.13;;;18.32;100.00
36190;BME280;22232;50.914;13.858;2023-07-20T07:31:09;97518.06;;;18.71;100.00
36190;BME280;22232;50.914;13.858;2023-07-20T07:33:37;97522.50;;;18.86;100.00
36190;BME280;22232;50.914;13.858;2023-07-20T07:36:05;97523.22;;;19.11;100.00
36190;BME280;22232;50.914;13.858;2023-07-20T07:38:33;97519.78;;;19.43;100.00
36190;BME280;22232;50.914;13.858;2023-07-20T07:41:21;97523.94;;;19.54;100.00
36190;BME280;22232;50.914;13.858;2023-07-20T07:43:49;97523.41;;;19.71;100.00
36190;BME280;22232;50.914;13.858;2023-07-20T07:46:16;97528.22;;;19.74;100.00
36190;BME280;22232;50.914;13.858;2023-07-20T07:48:45;97528.22;;;19.74;100.00
36190;BME280;22232;50.914;13.858;2023-07-20T07:51:12;97528.91;;;19.66;100.00
36190;BME280;22232;50.914;13.858;2023-07-20T07:53:42;97530.13;;;19.74;100.00
36190;BME280;22232;50.914;13.858;2023-07-20T07:56:11;97530.94;;;19.74;100.00
36190;BME280;22232;50.914;13.858;2023-07-20T07:58:38;97527.03;;;19.80;100.00
36190;BME280;22232;50.914;13.858;2023-07-20T08:01:06;97522.47;;;20.08;100.00
36190;BME280;22232;50.914;13.858;2023-07-20T08:03:34;97528.19;;;20.21;100.00
36190;BME280;22232;50.914;13.858;2023-07-20T08:06:03;97520.59;;;20.64;100.00
36190;BME280;22232;50.914;13.858;2023-07-20T08:08:32;97519.88;;;20.72;100.00
36190;BME280;22232;50.914;13.858;2023-07-20T08:11:00;97523.28;;;20.78;100.00
36190;BME280;22232;50.914;13.858;2023-07-20T08:13:34;97526.50;;;20.80;100.00
36190;BME280;22232;50.914;13.858;2023-07-20T08:16:02;97523.91;;;21.47;100.00
36190;BME280;22232;50.914;13.858;2023-07-20T08:18:30;97526.53;;;22.15;100.00
36190;BME280;22232;50.914;13.858;2023-07-20T08:20:58;97525.16;;;22.66;100.00
36190;BME280;22232;50.914;13.858;2023-07-20T08:23:26;97523.38;;;22.53;100.00
36190;BME280;22232;50.914;13.858;2023-07-20T08:25:55;97533.63;;;22.73;100.00
36190;BME280;22232;50.914;13.858;2023-07-20T08:28:22;97539.47;;;22.40;100.00
36190;BME280;22232;50.914;13.858;2023-07-20T08:30:50;97542.78;;;22.06;100.00
36190;BME280;22232;50.914;13.858;2023-07-20T08:33:18;97533.03;;;22.05;100.00
36190;BME280;22232;50.914;13.858;2023-07-20T08:35:50;97536.19;;;21.67;100.00
36190;BME280;22232;50.914;13.858;2023-07-20T08:38:18;97540.63;;;21.41;100.00
36190;BME280;22232;50.914;13.858;2023-07-20T08:40:46;97547.72;;;21.50;100.00
36190;BME280;22232;50.914;13.858;2023-07-20T08:43:14;97544.94;;;21.64;100.00
36190;BME280;22232;50.914;13.858;2023-07-20T08:45:46;97533.28;;;22.57;100.00
36190;BME280;22232;50.914;13.858;2023-07-20T08:48:16;97537.09;;;23.22;100.00
36190;BME280;22232;50.914;13.858;2023-07-20T08:50:48;97537.88;;;23.57;100.00
36190;BME280;22232;50.914;13.858;2023-07-20T08:53:17;97543.00;;;23.76;100.00
36190;BME280;22232;50.914;13.858;2023-07-20T08:55:45;97549.06;;;24.46;95.84
36190;BME280;22232;50.914;13.858;2023-07-20T08:58:15;97537.81;;;24.86;97.49
36190;BME280;22232;50.914;13.858;2023-07-20T09:00:43;97538.19;;;24.38;87.30
36190;BME280;22232;50.914;13.858;2023-07-20T09:03:14;97542.94;;;24.11;88.52
36190;BME280;22232;50.914;13.858;2023-07-20T09:05:42;97529.72;;;23.14;91.15
36190;BME280;22232;50.914;13.858;2023-07-20T09:08:10;97531.56;;;22.79;94.39
36190;BME280;22232;50.914;13.858;2023-07-20T09:10:38;97531.16;;;23.11;98.83
36190;BME280;22232;50.914;13.858;2023-07-20T09:13:06;97535.81;;;23.54;99.50
36190;BME280;22232;50.914;13.858;2023-07-20T09:15:36;97531.56;;;24.09;88.47
36190;BME280;22232;50.914;13.858;2023-07-20T09:18:04;97543.34;;;24.69;82.88
36190;BME280;22232;50.914;13.858;2023-07-20T09:20:32;97539.41;;;24.58;83.16
36190;BME280;22232;50.914;13.858;2023-07-20T09:23:06;97528.44;;;24.96;79.06
36190;BME280;22232;50.914;13.858;2023-07-20T09:25:36;97539.09;;;25.52;71.40
36190;BME280;22232;50.914;13.858;2023-07-20T09:28:04;97534.91;;;25.54;71.03
36190;BME280;22232;50.914;13.858;2023-07-20T09:30:32;97537.97;;;25.11;74.88
36190;BME280;22232;50.914;13.858;2023-07-20T09:33:00;97529.94;;;25.14;70.53
36190;BME280;22232;50.914;13.858;2023-07-20T09:35:29;97530.84;;;25.60;75.25
36190;BME280;22232;50.914;13.858;2023-07-20T09:38:09;97529.00;;;25.64;70.02
36190;BME280;22232;50.914;13.858;2023-07-20T09:40:40;97534.03;;;25.62;68.02
36190;BME280;22232;50.914;13.858;2023-07-20T09:43:11;97535.13;;;25.82;73.58
36190;BME280;22232;50.914;13.858;2023-07-20T09:45:42;97536.25;;;25.48;66.73
36190;BME280;22232;50.914;13.858;2023-07-20T09:48:13;97533.34;;;24.52;70.32
36190;BME280;22232;50.914;13.858;2023-07-20T09:50:49;97538.91;;;24.17;70.22
36190;BME280;22232;50.914;13.858;2023-07-20T09:53:20;97531.53;;;24.86;76.44
36190;BME280;22232;50.914;13.858;2023-07-20T09:55:48;97531.22;;;25.17;72.89
36190;BME280;22232;50.914;13.858;2023-07-20T09:58:16;97534.09;;;25.12;70.90
36190;BME280;22232;50.914;13.858;2023-07-20T10:00:45;97531.63;;;24.98;64.87
36190;BME280;22232;50.914;13.858;2023-07-20T10:03:29;97532.78;;;25.18;66.31
36190;BME280;22232;50.914;13.858;2023-07-20T10:06:10;97526.31;;;25.02;68.31
36190;BME280;22232;50.914;13.858;2023-07-20T10:08:41;97525.09;;;25.20;65.84
36190;BME280;22232;50.914;13.858;2023-07-20T10:11:15;97525.94;;;24.82;67.23
36190;BME280;22232;50.914;13.858;2023-07-20T10:13:44;97524.84;;;24.54;69.18
36190;BME280;22232;50.914;13.858;2023-07-20T10:16:22;97533.66;;;24.03;68.63
36190;BME280;22232;50.914;13.858;2023-07-20T10:19:11;97524.09;;;24.44;73.68
36190;BME280;22232;50.914;13.858;2023-07-20T10:21:48;97529.81;;;24.81;71.30
36190;BME280;22232;50.914;13.858;2023-07-20T10:24:26;97525.69;;;24.37;70.19
36190;BME280;22232;50.914;13.858;2023-07-20T10:26:56;97531.78;;;24.34;66.08
36190;BME280;22232;50.914;13.858;2023-07-20T10:29:24;97528.53;;;24.40;68.80
36190;BME280;22232;50.914;13.858;2023-07-20T10:31:57;97520.09;;;24.71;66.48
36190;BME280;22232;50.914;13.858;2023-07-20T10:34:25;97526.06;;;24.86;61.81
36190;BME280;22232;50.914;13.858;2023-07-20T10:36:52;97523.34;;;25.36;61.62
36190;BME280;22232;50.914;13.858;2023-07-20T10:39:26;97526.00;;;25.78;61.02
36190;BME280;22232;50.914;13.858;2023-07-20T10:42:11;97518.94;;;26.47;58.61
36190;BME280;22232;50.914;13.858;2023-07-20T10:44:40;97528.69;;;26.69;56.49
36190;BME280;22232;50.914;13.858;2023-07-20T10:47:11;97519.28;;;26.95;55.00
36190;BME280;22232;50.914;13.858;2023-07-20T10:50:00;97517.81;;;26.97;54.97
36190;BME280;22232;50.914;13.858;2023-07-20T10:52:39;97519.19;;;26.42;54.85
36190;BME280;22232;50.914;13.858;2023-07-20T10:55:14;97513.03;;;26.21;54.32
36190;BME280;22232;50.914;13.858;2023-07-20T10:57:42;97513.03;;;26.21;56.86
36190;BME280;22232;50.914;13.858;2023-07-20T11:00:14;97515.56;;;25.93;54.17
36190;BME280;22232;50.914;13.858;2023-07-20T11:02:49;97517.19;;;25.94;55.69
36190;BME280;22232;50.914;13.858;2023-07-20T11:05:40;97520.06;;;26.22;54.44
36190;BME280;22232;50.914;13.858;2023-07-20T11:08:12;97514.53;;;26.67;54.49
36190;BME280;22232;50.914;13.858;2023-07-20T11:10:40;97509.94;;;26.84;52.37
36190;BME280;22232;50.914;13.858;2023-07-20T11:13:18;97511.75;;;26.92;52.88
36190;BME280;22232;50.914;13.858;2023-07-20T11:16:08;97522.03;;;26.21;58.32
36190;BME280;22232;50.914;13.858;2023-07-20T11:18:35;97521.59;;;25.11;63.58
36190;BME280;22232;50.914;13.858;2023-07-20T11:21:08;97525.16;;;24.82;63.91
36190;BME280;22232;50.914;13.858;2023-07-20T11:23:38;97527.31;;;24.29;70.27
36190;BME280;22232;50.914;13.858;2023-07-20T11:26:05;97514.72;;;24.07;77.13
36190;BME280;22232;50.914;13.858;2023-07-20T11:28:34;97520.28;;;24.19;74.31
36190;BME280;22232;50.914;13.858;2023-07-20T11:31:02;97520.28;;;23.11;81.56
36190;BME280;22232;50.914;13.858;2023-07-20T11:33:29;97528.41;;;21.74;90.92
36190;BME280;22232;50.914;13.858;2023-07-20T11:35:57;97526.72;;;20.42;100.00
36190;BME280;22232;50.914;13.858;2023-07-20T11:38:25;97529.25;;;20.52;100.00
36190;BME280;22232;50.914;13.858;2023-07-20T11:40:53;97524.91;;;20.37;100.00
36190;BME280;22232;50.914;13.858;2023-07-20T11:43:21;97530.03;;;20.67;99.73
36190;BME280;22232;50.914;13.858;2023-07-20T11:45:50;97529.22;;;21.16;92.36
36190;BME280;22232;50.914;13.858;2023-07-20T11:48:18;97529.78;;;20.91;94.93
36190;BME280;22232;50.914;13.858;2023-07-20T11:50:45;97535.00;;;21.37;91.58
36190;BME280;22232;50.914;13.858;2023-07-20T11:53:14;97528.53;;;21.33;93.63
36190;BME280;22232;50.914;13.858;2023-07-20T11:55:43;97526.19;;;21.54;90.97
36190;BME280;22232;50.914;13.858;2023-07-20T11:58:12;97533.22;;;21.77;90.99
36190;BME280;22232;50.914;13.858;2023-07-20T12:00:44;97527.50;;;21.88;88.29
36190;BME280;22232;50.914;13.858;2023-07-20T12:03:13;97529.34;;;21.70;89.48
36190;BME280;22232;50.914;13.858;2023-07-20T12:05:41;97530.19;;;21.57;91.38
36190;BME280;22232;50.914;13.858;2023-07-20T12:08:11;97539.53;;;21.64;89.58
36190;BME280;22232;50.914;13.858;2023-07-20T12:10:40;97530.63;;;21.72;92.29
36190;BME280;22232;50.914;13.858;2023-07-20T12:13:11;97533.16;;;21.10;92.73
36190;BME280;22232;50.914;13.858;2023-07-20T12:15:39;97529.75;;;21.04;100.00
36190;BME280;22232;50.914;13.858;2023-07-20T12:18:07;97525.56;;;20.84;97.45
36190;BME280;22232;50.914;13.858;2023-07-20T12:20:36;97534.25;;;20.45;100.00
36190;BME280;22232;50.914;13.858;2023-07-20T12:23:09;97534.75;;;20.61;100.00
36190;BME280;22232;50.914;13.858;2023-07-20T12:25:41;97527.81;;;20.27;100.00
36190;BME280;22232;50.914;13.858;2023-07-20T12:28:11;97528.59;;;20.14;100.00
36190;BME280;22232;50.914;13.858;2023-07-20T12:30:41;97527.81;;;20.27;100.00
36190;BME280;22232;50.914;13.858;2023-07-20T12:33:08;97534.59;;;19.97;100.00
36190;BME280;22232;50.914;13.858;2023-07-20T12:35:36;97533.97;;;19.86;100.00
36190;BME280;22232;50.914;13.858;2023-07-20T12:38:04;97535.16;;;19.61;100.00
36190;BME280;22232;50.914;13.858;2023-07-20T12:40:33;97538.84;;;19.70;100.00
36190;BME280;22232;50.914;13.858;2023-07-20T12:43:01;97536.53;;;20.24;100.00
36190;BME280;22232;50.914;13.858;2023-07-20T12:45:29;97539.94;;;20.16;100.00
36190;BME280;22232;50.914;13.858;2023-07-20T12:47:57;97537.63;;;20.09;100.00
36190;BME280;22232;50.914;13.858;2023-07-20T12:50:25;97541.44;;;20.22;100.00
36190;BME280;22232;50.914;13.858;2023-07-20T12:52:53;97540.88;;;20.39;100.00
36190;BME280;22232;50.914;13.858;2023-07-20T12:55:20;97546.25;;;20.25;100.00
36190;BME280;22232;50.914;13.858;2023-07-20T12:57:48;97550.91;;;19.92;100.00
36190;BME280;22232;50.914;13.858;2023-07-20T13:00:16;97573.72;;;19.72;100.00
36190;BME280;22232;50.914;13.858;2023-07-20T13:02:44;97584.03;;;19.32;100.00
36190;BME280;22232;50.914;13.858;2023-07-20T13:05:12;97589.06;;;19.01;100.00